Time;durP1;ratioP1;P1;durP2;ratioP2;P2;SDS_P1;SDS_P2;PMS_P1;PMS_P2;Temp;Humidity;BMP_temperature;BMP_pressure;BME280_temperature;BME280_humidity;BME280_pressure;Samples;Min_cycle;Max_cycle;Signal;HPM_P1;HPM_P2
2024/03/15 00:01:38;;;;;;;3.13;2.03;;;15.00;76.30;;;;;;5071491;28;20104;-66
2024/03/15 00:04:04;;;;;;;2.67;2.05;;;15.00;76.30;;;;;;5074669;28;20021;-68
2024/03/15 00:06:30;;;;;;;2.10;1.77;;;14.90;76.40;;;;;;5071267;28;20073;-68
2024/03/15 00:08:56;;;;;;;3.05;2.22;;;14.90;76.40;;;;;;5075612;28;20085;-66
2024/03/15 00:11:22;;;;;;;3.42;2.10;;;14.90;76.50;;;;;;5071313;28;20099;-66
2024/03/15 00:13:48;;;;;;;2.80;2.00;;;14.90;76.50;;;;;;5075767;28;20039;-67
2024/03/15 00:16:14;;;;;;;2.45;2.03;;;14.90;76.60;;;;;;5069482;28;20518;-66
2024/03/15 00:18:40;;;;;;;5.05;2.10;;;14.90;76.70;;;;;;5075197;28;20029;-66
2024/03/15 00:21:06;;;;;;;3.33;2.05;;;14.90;76.80;;;;;;5085139;28;20025;-67
2024/03/15 00:23:32;;;;;;;3.30;2.30;;;14.80;76.90;;;;;;5070614;28;20031;-67
2024/03/15 00:26:01;;;;;;;3.25;2.58;;;14.80;77.00;;;;;;5068409;28;20035;-68
2024/03/15 00:28:26;;;;;;;4.05;2.80;;;14.70;77.10;;;;;;5069493;28;20028;-66
2024/03/15 00:30:52;;;;;;;3.70;2.40;;;14.70;77.30;;;;;;5069711;28;20040;-67
2024/03/15 00:33:17;;;;;;;4.07;2.45;;;14.60;77.40;;;;;;5072530;28;20111;-67
2024/03/15 00:35:43;;;;;;;3.70;2.67;;;14.70;77.50;;;;;;5069092;28;20065;-68
2024/03/15 00:38:09;;;;;;;3.05;2.10;;;14.60;77.60;;;;;;5069298;28;20432;-67
2024/03/15 00:40:34;;;;;;;4.38;2.30;;;14.60;77.70;;;;;;5070559;28;20077;-67
2024/03/15 00:43:01;;;;;;;4.50;2.70;;;14.60;77.80;;;;;;5068495;28;20027;-67
2024/03/15 00:45:26;;;;;;;3.50;2.50;;;14.60;78.00;;;;;;5068180;28;20391;-67
2024/03/15 00:47:53;;;;;;;4.45;2.58;;;14.60;78.00;;;;;;5067217;28;20025;-68
2024/03/15 00:50:18;;;;;;;4.60;2.70;;;14.50;78.00;;;;;;5076532;28;20028;-67
2024/03/15 00:52:44;;;;;;;4.00;2.33;;;14.50;78.20;;;;;;5067905;28;20028;-68
2024/03/15 00:55:11;;;;;;;4.65;2.85;;;14.50;78.10;;;;;;5070864;28;20676;-68
2024/03/15 00:57:36;;;;;;;4.05;2.97;;;14.50;78.20;;;;;;5068252;28;20116;-67
2024/03/15 01:00:03;;;;;;;3.05;2.33;;;14.50;78.30;;;;;;5070165;28;20099;-65
2024/03/15 01:02:29;;;;;;;4.40;2.13;;;14.50;78.30;;;;;;5064113;28;20017;-67
2024/03/15 01:04:54;;;;;;;3.67;2.33;;;14.50;78.30;;;;;;5066579;28;20029;-67
2024/03/15 01:07:20;;;;;;;5.90;3.33;;;14.60;78.40;;;;;;5070620;28;20035;-67
2024/03/15 01:09:46;;;;;;;5.28;3.17;;;14.50;79.30;;;;;;5070192;28;20017;-67
2024/03/15 01:12:14;;;;;;;6.65;3.28;;;14.50;78.70;;;;;;5067345;28;20387;-68
2024/03/15 01:14:40;;;;;;;3.72;2.42;;;14.50;78.70;;;;;;5071982;28;20650;-67
2024/03/15 01:17:07;;;;;;;3.25;2.40;;;14.50;78.70;;;;;;5071886;28;20024;-66
2024/03/15 01:19:33;;;;;;;3.50;2.60;;;14.60;78.80;;;;;;5071826;28;20631;-65
2024/03/15 01:22:00;;;;;;;3.40;2.33;;;14.50;78.80;;;;;;5069350;28;20158;-66
2024/03/15 01:24:26;;;;;;;2.78;2.10;;;14.50;78.90;;;;;;5070749;28;20124;-66
2024/03/15 01:26:52;;;;;;;4.28;2.53;;;14.60;78.90;;;;;;5064424;28;20394;-67
2024/03/15 01:29:17;;;;;;;2.97;2.10;;;14.60;78.90;;;;;;5067756;28;20151;-67
2024/03/15 01:31:43;;;;;;;5.13;2.58;;;14.60;78.90;;;;;;5072014;28;20115;-67
2024/03/15 01:34:09;;;;;;;4.45;2.90;;;14.60;79.00;;;;;;5070906;28;20012;-67
2024/03/15 01:36:35;;;;;;;5.65;3.05;;;14.50;79.10;;;;;;5070069;28;20497;-66
2024/03/15 01:39:00;;;;;;;7.00;3.90;;;14.50;79.30;;;;;;5065650;28;20036;-68
2024/03/15 01:41:26;;;;;;;4.90;3.00;;;14.50;79.50;;;;;;5067431;28;20108;-66
2024/03/15 01:43:51;;;;;;;4.93;3.28;;;14.50;79.60;;;;;;5071705;28;20027;-66
2024/03/15 01:46:17;;;;;;;4.65;2.72;;;14.50;79.70;;;;;;5073952;28;20024;-67
2024/03/15 01:48:44;;;;;;;4.05;2.33;;;14.50;79.70;;;;;;5072098;28;20024;-67
2024/03/15 01:51:10;;;;;;;4.30;2.85;;;14.50;79.60;;;;;;5066011;28;20475;-65
2024/03/15 01:53:37;;;;;;;6.53;3.22;;;14.50;79.60;;;;;;5074075;28;20425;-66
2024/03/15 01:56:03;;;;;;;6.13;3.05;;;14.50;79.80;;;;;;5077569;28;20016;-67
2024/03/15 01:58:29;;;;;;;3.83;2.30;;;14.50;79.90;;;;;;5069126;28;20086;-66
2024/03/15 02:00:56;;;;;;;4.18;2.75;;;14.50;79.80;;;;;;5072785;28;20056;-65
2024/03/15 02:03:23;;;;;;;6.28;3.28;;;14.50;80.00;;;;;;5070352;28;20422;-66
2024/03/15 02:05:49;;;;;;;4.57;3.13;;;14.50;80.10;;;;;;5069963;28;20043;-68
2024/03/15 02:08:19;;;;;;;5.45;2.90;;;14.50;80.10;;;;;;5072893;28;20476;-67
2024/03/15 02:10:45;;;;;;;4.45;3.20;;;14.50;80.10;;;;;;5073282;28;20034;-67
2024/03/15 02:13:10;;;;;;;5.03;3.30;;;14.50;80.20;;;;;;5074253;28;20043;-67
2024/03/15 02:15:36;;;;;;;4.03;2.72;;;14.50;80.20;;;;;;5073891;28;20057;-67
2024/03/15 02:18:02;;;;;;;5.22;2.92;;;14.50;80.10;;;;;;5069233;28;20111;-66
2024/03/15 02:20:27;;;;;;;4.25;2.55;;;14.50;80.20;;;;;;5071653;28;20024;-67
2024/03/15 02:22:53;;;;;;;4.80;3.10;;;14.50;80.20;;;;;;5074366;28;20442;-67
2024/03/15 02:25:19;;;;;;;4.97;2.75;;;14.50;80.30;;;;;;5069043;28;20040;-68
2024/03/15 02:27:44;;;;;;;3.33;2.25;;;14.50;80.30;;;;;;5068001;28;20032;-66
2024/03/15 02:30:11;;;;;;;3.85;2.55;;;14.50;80.30;;;;;;5072730;28;20064;-67
2024/03/15 02:32:38;;;;;;;5.82;3.38;;;14.50;80.30;;;;;;5068759;28;20021;-67
2024/03/15 02:35:07;;;;;;;3.65;2.30;;;14.50;80.30;;;;;;5067208;28;20379;-68
2024/03/15 02:37:33;;;;;;;3.85;2.65;;;14.50;80.40;;;;;;5077287;28;20089;-67
2024/03/15 02:39:58;;;;;;;3.97;2.20;;;14.50;80.40;;;;;;5069005;28;20036;-67
2024/03/15 02:42:24;;;;;;;3.20;2.08;;;14.50;80.40;;;;;;5075825;28;20024;-66
2024/03/15 02:44:49;;;;;;;5.90;3.00;;;14.50;80.40;;;;;;5074546;28;20060;-68
2024/03/15 02:47:15;;;;;;;3.75;2.53;;;14.50;80.50;;;;;;5066338;28;20031;-67
2024/03/15 02:49:40;;;;;;;3.95;2.60;;;14.40;80.50;;;;;;5067302;28;20032;-67
2024/03/15 02:52:06;;;;;;;6.45;3.67;;;14.50;80.60;;;;;;5075617;28;20028;-67
2024/03/15 02:54:32;;;;;;;5.50;2.85;;;14.40;80.70;;;;;;5078757;28;20020;-68
2024/03/15 02:56:58;;;;;;;5.90;2.85;;;14.40;80.80;;;;;;5065700;28;20103;-67
2024/03/15 02:59:23;;;;;;;3.30;2.10;;;14.40;80.70;;;;;;5070565;28;20044;-68
2024/03/15 03:01:51;;;;;;;4.68;2.67;;;14.40;80.80;;;;;;5069661;28;20025;-66
2024/03/15 03:04:18;;;;;;;3.10;2.30;;;14.40;80.80;;;;;;5076791;28;20016;-68
2024/03/15 03:06:45;;;;;;;4.35;2.38;;;14.40;80.90;;;;;;5068596;28;20040;-67
2024/03/15 03:09:17;;;;;;;5.10;3.00;;;14.40;80.90;;;;;;5071995;28;20028;-67
2024/03/15 03:11:43;;;;;;;4.88;2.88;;;14.40;80.90;;;;;;5066409;28;20029;-67
2024/03/15 03:14:09;;;;;;;5.13;2.88;;;14.40;81.00;;;;;;5067961;28;20065;-67
2024/03/15 03:16:35;;;;;;;4.70;3.17;;;14.30;81.00;;;;;;5076623;28;20065;-66
2024/03/15 03:19:02;;;;;;;5.43;3.10;;;14.30;81.10;;;;;;5067850;28;20020;-66
2024/03/15 03:21:28;;;;;;;4.32;2.40;;;14.30;81.20;;;;;;5068871;28;20077;-67
2024/03/15 03:24:00;;;;;;;3.28;2.15;;;14.30;81.20;;;;;;5066652;28;20021;-67
2024/03/15 03:26:26;;;;;;;5.00;2.75;;;14.30;81.10;;;;;;5066558;28;20017;-68
2024/03/15 03:28:53;;;;;;;3.63;2.55;;;14.30;81.20;;;;;;5068484;28;20024;-68
2024/03/15 03:31:21;;;;;;;4.03;2.45;;;14.30;81.20;;;;;;5065925;28;20024;-67
2024/03/15 03:33:47;;;;;;;3.28;2.20;;;14.30;81.30;;;;;;5071440;28;20024;-66
2024/03/15 03:36:12;;;;;;;2.83;2.10;;;14.30;81.20;;;;;;5074647;28;20078;-68
2024/03/15 03:38:39;;;;;;;3.38;1.90;;;14.30;81.20;;;;;;5077456;28;20538;-68
2024/03/15 03:41:05;;;;;;;2.65;1.70;;;14.30;81.20;;;;;;5075518;28;20024;-67
2024/03/15 03:43:30;;;;;;;5.35;2.60;;;14.30;81.30;;;;;;5077299;28;20074;-68
2024/03/15 03:45:56;;;;;;;3.00;2.10;;;14.30;81.40;;;;;;5078168;28;20510;-67
2024/03/15 03:48:22;;;;;;;2.58;1.90;;;14.30;81.30;;;;;;5073308;28;20025;-67
2024/03/15 03:50:48;;;;;;;2.58;1.67;;;14.40;81.30;;;;;;5083554;28;20429;-66
2024/03/15 03:53:14;;;;;;;3.78;2.10;;;14.40;81.30;;;;;;5075339;28;20020;-66
2024/03/15 03:55:40;;;;;;;2.90;2.10;;;14.40;81.30;;;;;;5080349;28;20063;-66
2024/03/15 03:58:15;;;;;;;3.08;2.08;;;14.40;81.40;;;;;;5076475;28;20107;-66
2024/03/15 04:00:40;;;;;;;2.33;1.60;;;14.40;81.40;;;;;;5078300;28;20036;-67
2024/03/15 04:03:06;;;;;;;2.85;1.70;;;14.40;81.40;;;;;;5086861;28;20032;-67
2024/03/15 04:05:31;;;;;;;2.25;1.60;;;14.30;81.40;;;;;;5074742;28;20028;-66
2024/03/15 04:07:57;;;;;;;2.40;1.30;;;14.30;81.60;;;;;;5075423;28;20024;-67
2024/03/15 04:10:26;;;;;;;1.42;1.33;;;14.30;81.80;;;;;;5079357;28;20378;-67
2024/03/15 04:12:52;;;;;;;3.75;1.70;;;14.20;81.90;;;;;;5074953;28;20024;-68
2024/03/15 04:15:19;;;;;;;2.00;1.40;;;14.10;82.10;;;;;;5083479;28;20024;-67
2024/03/15 04:17:44;;;;;;;2.47;1.45;;;14.10;82.40;;;;;;5076894;28;20017;-67
2024/03/15 04:20:15;;;;;;;3.47;2.00;;;14.00;82.50;;;;;;5087882;28;20035;-67
2024/03/15 04:22:42;;;;;;;1.95;1.48;;;14.00;82.70;;;;;;5074375;28;20020;-67
2024/03/15 04:25:09;;;;;;;2.08;1.52;;;14.00;82.90;;;;;;5071125;28;20039;-67
2024/03/15 04:27:35;;;;;;;3.40;2.10;;;13.90;83.00;;;;;;5075495;28;20090;-67
2024/03/15 04:30:13;;;;;;;3.85;2.17;;;13.90;83.30;;;;;;5076157;28;20107;-67
2024/03/15 04:32:51;;;;;;;3.85;2.80;;;13.90;83.40;;;;;;5082710;28;20024;-67
2024/03/15 04:35:17;;;;;;;4.78;2.58;;;13.80;83.90;;;;;;5078283;28;20491;-66
2024/03/15 04:37:43;;;;;;;5.03;3.00;;;13.80;84.20;;;;;;5073592;28;20095;-67
2024/03/15 04:40:10;;;;;;;5.38;2.63;;;13.70;84.70;;;;;;5079245;28;20063;-66
2024/03/15 04:42:36;;;;;;;2.65;2.08;;;13.60;85.00;;;;;;5076937;28;20020;-66
2024/03/15 04:45:08;;;;;;;2.55;1.90;;;13.60;85.10;;;;;;5075227;28;20031;-67
2024/03/15 04:47:35;;;;;;;3.20;1.90;;;13.60;85.10;;;;;;5076497;28;20048;-67
2024/03/15 04:50:00;;;;;;;3.85;2.40;;;13.60;85.20;;;;;;5084473;28;20024;-67
2024/03/15 04:52:27;;;;;;;3.20;2.08;;;13.60;85.40;;;;;;5075225;28;20028;-67
2024/03/15 04:54:53;;;;;;;3.33;2.28;;;13.60;85.40;;;;;;5074010;28;20025;-69
2024/03/15 04:57:21;;;;;;;3.00;2.00;;;13.60;85.50;;;;;;5072463;28;20016;-67
2024/03/15 04:59:46;;;;;;;2.63;1.80;;;13.60;85.60;;;;;;5077256;28;20027;-67
2024/03/15 05:02:14;;;;;;;3.13;2.03;;;13.60;85.60;;;;;;5075324;28;20098;-66
2024/03/15 05:04:40;;;;;;;4.47;2.70;;;13.60;85.70;;;;;;5079372;28;20043;-66
2024/03/15 05:07:06;;;;;;;4.10;2.80;;;13.60;86.00;;;;;;5072935;28;20552;-66
2024/03/15 05:09:31;;;;;;;3.90;2.88;;;13.50;86.20;;;;;;5073826;28;20036;-66
2024/03/15 05:11:58;;;;;;;4.13;2.83;;;13.50;86.60;;;;;;5076350;28;20032;-66
2024/03/15 05:14:23;;;;;;;4.85;3.03;;;13.50;86.90;;;;;;5074233;28;20417;-67
2024/03/15 05:16:55;;;;;;;4.85;3.00;;;13.50;87.20;;;;;;5068212;28;20090;-66
2024/03/15 05:19:21;;;;;;;4.70;3.08;;;13.40;87.60;;;;;;5070411;28;20039;-67
2024/03/15 05:21:47;;;;;;;5.97;3.10;;;13.40;87.90;;;;;;5072851;28;20040;-67
2024/03/15 05:24:12;;;;;;;5.47;3.30;;;13.40;88.40;;;;;;5072926;28;20086;-67
2024/03/15 05:26:38;;;;;;;5.40;3.22;;;13.40;88.50;;;;;;5075328;28;20078;-67
2024/03/15 05:29:04;;;;;;;3.88;2.80;;;13.50;88.70;;;;;;5072861;28;20390;-68
2024/03/15 05:31:30;;;;;;;8.00;3.25;;;13.50;88.70;;;;;;5071738;28;20078;-68
2024/03/15 05:33:58;;;;;;;5.65;3.20;;;13.50;88.90;;;;;;5076483;28;21571;-68
2024/03/15 05:36:25;;;;;;;5.93;3.35;;;13.50;89.00;;;;;;5069661;28;20051;-69
2024/03/15 05:38:51;;;;;;;3.05;2.20;;;13.40;89.10;;;;;;5069703;28;20051;-66
2024/03/15 05:41:16;;;;;;;2.88;1.77;;;13.50;89.00;;;;;;5072648;28;20059;-67
2024/03/15 05:43:42;;;;;;;2.45;1.90;;;13.50;88.80;;;;;;5071848;28;20036;-67
2024/03/15 05:46:11;;;;;;;4.18;2.55;;;13.60;88.70;;;;;;5072852;28;20024;-66
2024/03/15 05:48:37;;;;;;;4.65;2.83;;;13.60;88.80;;;;;;5076695;28;20394;-66
2024/03/15 05:51:03;;;;;;;3.63;2.33;;;13.50;88.90;;;;;;5066108;28;20017;-67
2024/03/15 05:53:29;;;;;;;4.35;2.85;;;13.60;88.90;;;;;;5072216;28;20028;-67
2024/03/15 05:55:55;;;;;;;4.85;2.90;;;13.50;89.20;;;;;;5081467;28;20032;-68
2024/03/15 05:58:20;;;;;;;3.25;2.13;;;13.50;89.40;;;;;;5082353;28;20060;-66
2024/03/15 06:00:46;;;;;;;3.00;2.45;;;13.50;89.30;;;;;;5073041;28;20494;-66
2024/03/15 06:03:12;;;;;;;4.75;2.67;;;13.50;89.20;;;;;;5081118;28;20025;-67
2024/03/15 06:05:37;;;;;;;2.90;2.00;;;13.50;89.30;;;;;;5070153;28;20117;-67
2024/03/15 06:08:04;;;;;;;3.75;2.00;;;13.60;89.20;;;;;;5066346;28;20032;-66
2024/03/15 06:10:29;;;;;;;2.97;2.17;;;13.60;89.10;;;;;;5069239;28;20537;-67
2024/03/15 06:12:55;;;;;;;4.20;2.67;;;13.60;89.10;;;;;;5078766;28;20052;-66
2024/03/15 06:15:21;;;;;;;3.97;2.35;;;13.60;89.20;;;;;;5077359;28;20039;-66
2024/03/15 06:17:47;;;;;;;3.35;2.50;;;13.60;89.30;;;;;;5071338;28;20039;-66
2024/03/15 06:20:13;;;;;;;2.33;1.85;;;13.60;89.30;;;;;;5072267;28;20045;-66
2024/03/15 06:22:39;;;;;;;3.38;2.30;;;13.60;89.30;;;;;;5071045;28;20033;-66
2024/03/15 06:25:05;;;;;;;3.45;2.28;;;13.60;89.50;;;;;;5077567;28;20166;-67
2024/03/15 06:27:31;;;;;;;3.50;2.00;;;13.70;89.40;;;;;;5066148;28;20386;-66
2024/03/15 06:29:57;;;;;;;2.63;1.83;;;13.70;89.40;;;;;;5078493;28;20111;-67
2024/03/15 06:32:35;;;;;;;3.03;1.90;;;13.70;89.30;;;;;;5065438;28;20029;-67
2024/03/15 06:35:08;;;;;;;3.15;1.75;;;13.70;89.30;;;;;;5071073;28;20023;-66
2024/03/15 06:37:33;;;;;;;6.90;2.60;;;13.70;89.30;;;;;;5072646;28;20035;-66
2024/03/15 06:42:34;;;;;;;4.25;2.88;;;13.80;89.60;;;;;;5070186;28;20391;-66
2024/03/15 06:45:08;;;;;;;4.55;2.50;;;13.70;89.60;;;;;;5071182;28;20036;-67
2024/03/15 06:47:38;;;;;;;3.40;1.80;;;13.80;89.70;;;;;;5070643;28;20040;-65
2024/03/15 06:52:38;;;;;;;3.05;1.90;;;13.90;89.40;;;;;;5073056;28;20379;-66
2024/03/15 06:55:06;;;;;;;2.58;1.60;;;13.80;89.50;;;;;;5068820;28;20024;-67
2024/03/15 06:57:32;;;;;;;3.90;2.33;;;13.80;89.60;;;;;;5066885;28;20578;-66
2024/03/15 07:00:03;;;;;;;2.95;1.80;;;13.90;89.70;;;;;;5078382;28;20414;-67
2024/03/15 07:02:30;;;;;;;2.95;1.70;;;13.90;89.50;;;;;;5069988;28;20394;-66
2024/03/15 07:04:55;;;;;;;3.17;2.35;;;14.00;89.40;;;;;;5070314;28;20035;-65
2024/03/15 07:07:22;;;;;;;4.15;2.33;;;13.90;89.50;;;;;;5071632;28;20127;-66
2024/03/15 07:09:47;;;;;;;3.60;2.00;;;13.90;89.50;;;;;;5066867;28;20021;-66
2024/03/15 07:12:14;;;;;;;2.38;1.80;;;13.90;89.50;;;;;;5072498;28;20077;-66
2024/03/15 07:14:40;;;;;;;2.30;1.55;;;14.00;89.50;;;;;;5070453;28;20070;-65
2024/03/15 07:17:09;;;;;;;2.88;1.90;;;14.10;89.40;;;;;;5075347;28;20061;-67
2024/03/15 07:19:35;;;;;;;2.10;1.60;;;14.10;89.30;;;;;;5066277;28;20483;-66
2024/03/15 07:22:01;;;;;;;2.33;1.60;;;14.10;89.20;;;;;;5069307;28;20107;-67
2024/03/15 07:24:26;;;;;;;6.78;2.40;;;14.10;89.10;;;;;;5074405;28;20025;-66
2024/03/15 07:26:52;;;;;;;3.40;2.22;;;14.20;89.10;;;;;;5070899;28;20352;-66
2024/03/15 07:29:18;;;;;;;4.22;2.25;;;14.20;89.10;;;;;;5070029;28;20052;-67
2024/03/15 07:31:43;;;;;;;2.60;1.85;;;14.20;89.10;;;;;;5080327;28;20017;-67
2024/03/15 07:34:09;;;;;;;6.13;2.95;;;14.30;89.00;;;;;;5067147;28;20025;-67
2024/03/15 07:36:34;;;;;;;3.58;2.50;;;14.30;89.10;;;;;;5070667;28;20031;-65
2024/03/15 07:39:00;;;;;;;5.45;2.85;;;14.40;89.10;;;;;;5079959;28;20056;-66
2024/03/15 07:41:31;;;;;;;3.63;2.72;;;14.40;89.00;;;;;;5067365;28;20031;-68
2024/03/15 07:43:57;;;;;;;5.30;2.58;;;14.40;88.90;;;;;;5073164;28;20024;-66
2024/03/15 07:46:23;;;;;;;3.53;2.00;;;14.40;88.90;;;;;;5068264;28;20031;-66
2024/03/15 07:48:49;;;;;;;4.05;2.00;;;14.40;88.80;;;;;;5077368;28;20099;-67
2024/03/15 07:51:15;;;;;;;2.72;2.08;;;14.40;88.70;;;;;;5070156;28;20024;-66
2024/03/15 07:53:40;;;;;;;4.03;2.10;;;14.40;88.70;;;;;;5074686;28;20031;-67
2024/03/15 07:56:09;;;;;;;3.15;2.03;;;14.40;88.70;;;;;;5079130;28;20075;-65
2024/03/15 07:58:37;;;;;;;2.67;2.00;;;14.40;88.80;;;;;;5064699;28;20514;-65
2024/03/15 08:01:07;;;;;;;3.70;2.45;;;14.40;88.80;;;;;;5065189;28;20024;-66
2024/03/15 08:03:33;;;;;;;3.63;2.28;;;14.40;89.00;;;;;;5069710;28;20112;-66
2024/03/15 08:06:00;;;;;;;3.80;2.20;;;14.40;89.10;;;;;;5079139;28;20124;-69
2024/03/15 08:08:26;;;;;;;3.17;1.77;;;14.40;89.10;;;;;;5075834;28;20382;-66
2024/03/15 08:10:52;;;;;;;3.10;1.95;;;14.40;89.00;;;;;;5074806;28;20024;-68
2024/03/15 08:13:22;;;;;;;3.17;1.80;;;14.50;88.90;;;;;;5076188;28;20034;-67
2024/03/15 08:15:54;;;;;;;4.85;2.10;;;14.50;88.80;;;;;;5071185;28;20646;-67
2024/03/15 08:18:19;;;;;;;2.97;1.95;;;14.60;88.80;;;;;;5067479;28;20032;-68
2024/03/15 08:20:47;;;;;;;6.60;2.67;;;14.60;88.60;;;;;;5074613;28;20705;-67
2024/03/15 08:23:13;;;;;;;4.93;2.40;;;14.50;88.60;;;;;;5066675;28;20028;-67
2024/03/15 08:25:41;;;;;;;3.00;1.90;;;14.50;88.50;;;;;;5073445;28;20032;-67
2024/03/15 08:28:09;;;;;;;3.25;2.00;;;14.50;88.50;;;;;;5078559;28;20052;-66
2024/03/15 08:30:34;;;;;;;2.92;1.80;;;14.60;88.40;;;;;;5071297;28;20031;-68
2024/03/15 08:33:02;;;;;;;3.63;1.40;;;14.60;88.30;;;;;;5078438;28;20028;-68
2024/03/15 08:35:27;;;;;;;2.72;1.38;;;14.60;88.20;;;;;;5068058;28;20024;-66
2024/03/15 08:37:53;;;;;;;3.25;1.70;;;14.70;88.20;;;;;;5072973;28;20425;-66
2024/03/15 08:40:18;;;;;;;2.80;1.70;;;14.70;88.10;;;;;;5072711;28;20059;-66
2024/03/15 08:42:45;;;;;;;3.10;1.60;;;14.80;88.00;;;;;;5072842;28;20596;-65
2024/03/15 08:45:11;;;;;;;1.80;1.42;;;14.80;87.90;;;;;;5080498;28;20075;-67
2024/03/15 08:47:40;;;;;;;2.25;1.30;;;14.80;87.80;;;;;;5080843;28;20515;-69
2024/03/15 08:50:11;;;;;;;2.65;1.50;;;14.80;87.80;;;;;;5072928;28;20388;-66
2024/03/15 08:52:39;;;;;;;2.45;1.80;;;14.80;87.80;;;;;;5069205;28;20078;-66
2024/03/15 08:55:13;;;;;;;2.03;1.50;;;14.80;87.80;;;;;;5079781;28;20146;-66
2024/03/15 08:57:39;;;;;;;5.82;2.92;;;14.80;87.90;;;;;;5071692;28;20020;-67
2024/03/15 09:00:11;;;;;;;4.95;2.35;;;14.80;88.00;;;;;;5070989;28;20024;-66
2024/03/15 09:02:40;;;;;;;4.18;2.20;;;14.80;88.10;;;;;;5071208;28;20020;-67
2024/03/15 09:05:09;;;;;;;3.67;1.88;;;14.70;88.00;;;;;;5069653;28;20105;-68
2024/03/15 09:07:38;;;;;;;4.00;2.20;;;14.80;88.00;;;;;;5070919;28;20029;-66
2024/03/15 09:10:13;;;;;;;4.15;2.20;;;14.80;88.10;;;;;;5078674;28;20699;-66
2024/03/15 09:12:43;;;;;;;4.75;2.40;;;14.80;88.00;;;;;;5074249;28;20027;-68
2024/03/15 09:15:08;;;;;;;2.78;1.88;;;14.70;88.00;;;;;;5068305;28;20570;-67
2024/03/15 09:17:34;;;;;;;2.60;1.80;;;14.70;88.10;;;;;;5076736;28;20142;-65
2024/03/15 09:20:09;;;;;;;2.80;1.75;;;14.60;88.20;;;;;;5070483;28;20024;-67
2024/03/15 09:22:35;;;;;;;2.58;1.60;;;14.60;88.30;;;;;;5067843;28;20044;-68
2024/03/15 09:25:01;;;;;;;1.77;1.52;;;14.60;88.40;;;;;;5066496;28;20112;-70
2024/03/15 09:27:27;;;;;;;2.72;1.70;;;14.60;88.40;;;;;;5069288;28;20103;-65
2024/03/15 09:29:53;;;;;;;2.13;1.90;;;14.50;88.50;;;;;;5074195;28;20023;-69
2024/03/15 09:32:21;;;;;;;2.67;1.88;;;14.50;88.90;;;;;;5066842;28;20028;-68
2024/03/15 09:34:48;;;;;;;2.40;1.63;;;14.50;89.00;;;;;;5070373;28;20021;-66
2024/03/15 09:37:14;;;;;;;4.25;2.10;;;14.50;89.10;;;;;;5100238;27;20020;-67
2024/03/15 09:39:40;;;;;;;2.42;1.90;;;14.50;89.20;;;;;;5075256;28;20020;-67
2024/03/15 09:42:14;;;;;;;4.45;2.63;;;14.50;89.30;;;;;;5071410;28;20484;-67
2024/03/15 09:44:40;;;;;;;3.50;2.35;;;14.60;89.40;;;;;;5077983;28;20491;-67
2024/03/15 09:47:10;;;;;;;3.75;2.00;;;14.60;89.30;;;;;;5068183;28;20067;-67
2024/03/15 09:49:37;;;;;;;1.98;1.77;;;14.70;89.30;;;;;;5065754;28;20107;-67
2024/03/15 09:52:05;;;;;;;2.05;1.33;;;14.80;89.20;;;;;;5068150;28;20028;-68
2024/03/15 09:54:30;;;;;;;1.67;1.38;;;14.90;88.80;;;;;;5074230;28;20115;-67
2024/03/15 09:56:58;;;;;;;3.20;2.15;;;15.10;88.60;;;;;;5063531;28;20077;-67
2024/03/15 09:59:31;;;;;;;5.90;2.10;;;15.20;88.30;;;;;;5067278;28;20479;-67
2024/03/15 10:01:56;;;;;;;2.88;2.00;;;15.20;88.00;;;;;;5064036;28;20545;-67
2024/03/15 10:04:22;;;;;;;2.95;1.58;;;15.30;87.60;;;;;;5068672;28;20025;-67
2024/03/15 10:06:48;;;;;;;1.85;1.52;;;15.40;87.20;;;;;;5067221;28;20032;-66
2024/03/15 10:09:13;;;;;;;3.47;1.50;;;15.50;87.10;;;;;;5067637;28;20025;-67
2024/03/15 10:11:39;;;;;;;2.65;1.30;;;15.60;86.90;;;;;;5067671;28;20051;-68
2024/03/15 10:14:08;;;;;;;2.65;1.70;;;15.70;86.70;;;;;;5072469;28;20021;-69
2024/03/15 10:16:37;;;;;;;3.63;1.75;;;15.80;86.20;;;;;;5066814;28;20016;-69
2024/03/15 10:19:04;;;;;;;4.05;1.50;;;15.90;85.90;;;;;;5068314;28;20024;-70
2024/03/15 10:21:29;;;;;;;4.03;1.30;;;16.00;85.40;;;;;;5065746;28;20025;-69
2024/03/15 10:23:55;;;;;;;3.72;1.40;;;16.10;85.00;;;;;;5069083;28;20033;-67
2024/03/15 10:26:20;;;;;;;4.32;1.70;;;16.10;84.30;;;;;;5066484;28;20163;-70
2024/03/15 10:28:46;;;;;;;3.83;1.38;;;16.00;83.70;;;;;;5064432;28;20103;-66
2024/03/15 10:31:11;;;;;;;2.75;1.30;;;15.90;83.40;;;;;;5067605;28;20036;-67
2024/03/15 10:33:38;;;;;;;5.65;1.50;;;15.90;83.80;;;;;;5069035;28;20043;-67
2024/03/15 10:36:03;;;;;;;1.98;1.05;;;15.90;83.90;;;;;;5068251;28;20024;-70
2024/03/15 10:38:29;;;;;;;2.55;1.00;;;15.90;84.00;;;;;;5068255;28;20024;-67
2024/03/15 10:40:59;;;;;;;2.13;1.05;;;16.00;83.80;;;;;;5068365;28;20546;-66
2024/03/15 10:43:25;;;;;;;2.50;1.23;;;16.00;83.70;;;;;;5068785;28;20025;-68
2024/03/15 10:45:52;;;;;;;2.83;1.10;;;16.00;83.60;;;;;;5069967;28;20039;-70
2024/03/15 10:48:19;;;;;;;2.85;1.00;;;16.10;83.60;;;;;;5066054;28;20044;-66
2024/03/15 10:50:46;;;;;;;2.92;1.17;;;16.10;83.40;;;;;;5068711;28;20615;-67
2024/03/15 10:53:16;;;;;;;1.77;0.85;;;16.20;83.50;;;;;;5067211;28;20457;-66
2024/03/15 10:55:47;;;;;;;1.67;1.02;;;16.30;83.40;;;;;;5066737;28;20028;-67
2024/03/15 10:58:13;;;;;;;2.70;1.60;;;16.50;83.00;;;;;;5068438;28;20013;-66
2024/03/15 11:00:39;;;;;;;3.67;1.70;;;16.60;82.60;;;;;;5067418;28;20037;-67
2024/03/15 11:03:24;;;;;;;5.15;1.70;;;16.70;82.10;;;;;;5070696;28;20020;-67
2024/03/15 11:05:50;;;;;;;3.15;1.67;;;16.80;81.80;;;;;;5064666;28;20387;-67
2024/03/15 11:08:19;;;;;;;3.25;1.90;;;16.80;81.40;;;;;;5066586;28;20031;-67
2024/03/15 11:11:01;;;;;;;4.20;1.95;;;16.80;80.60;;;;;;5065887;28;20032;-67
2024/03/15 11:13:31;;;;;;;;;;;16.70;80.60;;;;;;5070614;28;20013;-67
2024/03/15 11:15:56;;;;;;;3.10;1.80;;;16.60;80.60;;;;;;5067748;28;19974;-67
2024/03/15 11:18:22;;;;;;;3.40;2.10;;;16.50;80.90;;;;;;5066424;28;20429;-68
2024/03/15 11:20:56;;;;;;;2.65;1.70;;;16.40;81.30;;;;;;5064806;28;21613;-69
2024/03/15 11:23:24;;;;;;;4.63;1.90;;;16.30;81.70;;;;;;5071040;28;20028;-69
2024/03/15 11:25:54;;;;;;;3.50;1.83;;;16.20;82.20;;;;;;5068459;28;20036;-67
2024/03/15 11:28:21;;;;;;;1.35;1.25;;;16.10;82.60;;;;;;5068201;28;20509;-66
2024/03/15 11:30:47;;;;;;;1.40;1.25;;;15.90;83.10;;;;;;5069403;28;20039;-67
2024/03/15 11:33:13;;;;;;;1.52;1.20;;;15.80;83.50;;;;;;5069014;28;20517;-66
2024/03/15 11:35:40;;;;;;;2.17;1.50;;;15.70;83.80;;;;;;5065183;28;20705;-66
2024/03/15 11:38:13;;;;;;;2.00;1.20;;;15.60;84.20;;;;;;5068467;28;20085;-66
2024/03/15 11:40:40;;;;;;;2.63;1.00;;;15.60;84.50;;;;;;5068207;28;20033;-68
2024/03/15 11:43:10;;;;;;;2.30;1.30;;;15.50;84.70;;;;;;5068758;28;20020;-68
2024/03/15 11:45:41;;;;;;;1.75;1.10;;;15.50;84.90;;;;;;5067425;28;20477;-67
2024/03/15 11:48:20;;;;;;;2.30;1.20;;;15.50;85.10;;;;;;5068540;28;20020;-66
2024/03/15 11:50:48;;;;;;;3.03;1.10;;;15.40;85.10;;;;;;5069606;28;20040;-67
2024/03/15 11:53:15;;;;;;;1.27;1.10;;;15.40;85.20;;;;;;5067678;28;20126;-66
2024/03/15 11:55:50;;;;;;;1.42;1.23;;;15.50;85.30;;;;;;5065827;28;20033;-66
2024/03/15 11:58:21;;;;;;;1.20;1.00;;;15.50;85.30;;;;;;5075932;28;20033;-65
2024/03/15 12:00:54;;;;;;;3.05;1.70;;;15.50;85.30;;;;;;5079120;28;20495;-69
2024/03/15 12:03:22;;;;;;;3.17;1.60;;;15.40;85.50;;;;;;5073374;28;20793;-66
2024/03/15 12:05:48;;;;;;;3.15;1.40;;;15.40;85.70;;;;;;5072255;28;20550;-66
2024/03/15 12:08:22;;;;;;;3.00;1.58;;;15.30;85.80;;;;;;5073871;28;20033;-69
2024/03/15 12:10:52;;;;;;;4.85;2.22;;;15.20;86.10;;;;;;5068460;28;20154;-66
2024/03/15 12:13:22;;;;;;;3.03;1.80;;;15.10;86.60;;;;;;5075036;28;20483;-66
2024/03/15 12:15:50;;;;;;;2.58;1.58;;;15.00;87.00;;;;;;5074084;28;20073;-67
2024/03/15 12:18:17;;;;;;;3.92;1.70;;;15.10;87.30;;;;;;5071706;28;20478;-68
2024/03/15 12:20:44;;;;;;;2.05;1.60;;;15.20;87.50;;;;;;5075451;28;20036;-67
2024/03/15 12:23:17;;;;;;;4.13;2.00;;;15.30;87.40;;;;;;5071864;28;20089;-65
2024/03/15 12:25:45;;;;;;;2.75;1.63;;;15.40;87.80;;;;;;5068213;28;20040;-66
2024/03/15 12:28:15;;;;;;;2.00;1.38;;;15.40;88.10;;;;;;5065263;28;20025;-68
2024/03/15 12:30:43;;;;;;;3.85;1.92;;;15.50;87.90;;;;;;5070628;28;20544;-67
2024/03/15 12:33:09;;;;;;;1.83;1.50;;;15.50;88.20;;;;;;5072279;28;20020;-67
2024/03/15 12:35:35;;;;;;;3.63;2.15;;;15.60;88.10;;;;;;5072644;28;20491;-67
2024/03/15 12:38:01;;;;;;;3.65;1.70;;;15.70;88.30;;;;;;5068047;28;20028;-66
2024/03/15 12:40:26;;;;;;;1.38;1.15;;;15.80;88.30;;;;;;5066819;28;20059;-68
2024/03/15 12:42:52;;;;;;;2.13;1.45;;;16.10;88.00;;;;;;5069368;28;20032;-68
2024/03/15 12:45:18;;;;;;;2.83;1.25;;;16.30;87.70;;;;;;5068151;28;20035;-70
2024/03/15 12:47:44;;;;;;;1.38;1.08;;;16.50;87.30;;;;;;5067103;28;20037;-67
2024/03/15 12:50:20;;;;;;;2.00;1.10;;;16.60;86.70;;;;;;5069146;28;20035;-67
2024/03/15 12:52:46;;;;;;;2.55;1.23;;;16.80;86.50;;;;;;5063591;28;20043;-67